Time;durP1;ratioP1;P1;durP2;ratioP2;P2;SDS_P1;SDS_P2;PMS_P1;PMS_P2;Temp;Humidity;BMP_temperature;BMP_pressure;BME280_temperature;BME280_humidity;BME280_pressure;Samples;Min_cycle;Max_cycle;Signal;HPM_P1;HPM_P2
2023/02/15 00:02:19;;;;;;;65.90;26.40;;;;;;;;;;107183;1263;24324;-80
2023/02/15 00:05:02;;;;;;;;;;;;;;;;;;;;;
2023/02/15 00:07:34;;;;;;;66.20;25.90;;;;;;;;;;107155;1273;23114;-77
2023/02/15 00:10:23;;;;;;;69.80;26.60;;;;;;;;;;107135;1256;25432;-77
2023/02/15 00:13:13;;;;;;;66.90;25.20;;;;;;;;;;107175;1274;24253;-75
2023/02/15 00:16:06;;;;;;;72.80;26.50;;;;;;;;;;107135;1274;23883;-75
2023/02/15 00:18:33;;;;;;;72.70;27.00;;;;;;;;;;107149;1274;25312;-76
2023/02/15 00:21:30;;;;;;;;;;;;;;;;;;;;;
2023/02/15 00:24:21;;;;;;;75.50;25.30;;;;;;;;;;107157;1273;23608;-75
2023/02/15 00:26:51;;;;;;;79.30;29.10;;;;;;;;;;107181;1273;22543;-76
2023/02/15 00:29:41;;;;;;;75.60;27.90;;;;;;;;;;107162;1251;22529;-75
2023/02/15 00:32:08;;;;;;;73.80;27.10;;;;;;;;;;106865;1274;25369;-79
2023/02/15 00:34:40;;;;;;;69.70;26.90;;;;;;;;;;107175;1274;22544;-79
2023/02/15 00:37:26;;;;;;;;;;;;;;;;;;;;;
2023/02/15 00:40:13;;;;;;;70.30;26.00;;;;;;;;;;106934;1257;22530;-78
2023/02/15 00:43:00;;;;;;;66.90;25.30;;;;;;;;;;107048;1273;22534;-77
2023/02/15 00:45:30;;;;;;;69.90;26.20;;;;;;;;;;107163;1273;25284;-77
2023/02/15 00:48:10;;;;;;;;;;;;;;;;;;;;;
2023/02/15 00:50:56;;;;;;;68.40;26.30;;;;;;;;;;107116;1257;25332;-76
2023/02/15 00:53:46;;;;;;;70.00;24.90;;;;;;;;;;106867;1275;24203;-80
2023/02/15 00:56:36;;;;;;;69.30;24.20;;;;;;;;;;107149;1275;22573;-75
2023/02/15 00:59:24;;;;;;;62.20;22.80;;;;;;;;;;107120;1275;24187;-77
2023/02/15 01:02:40;;;;;;;77.10;26.50;;;;;;;;;;106901;1260;22536;-75
2023/02/15 01:05:29;;;;;;;76.10;27.00;;;;;;;;;;106975;1274;24166;-79
2023/02/15 01:08:02;;;;;;;76.40;27.00;;;;;;;;;;107084;1274;25488;-80
2023/02/15 01:11:02;;;;;;;;;;;;;;;;;;;;;
2023/02/15 01:13:41;;;;;;;70.80;25.50;;;;;;;;;;107140;1275;24256;-81
2023/02/15 01:16:11;;;;;;;68.20;25.90;;;;;;;;;;107127;1275;22547;-77
2023/02/15 01:18:40;;;;;;;65.80;25.20;;;;;;;;;;107086;1275;22534;-81
2023/02/15 01:21:18;;;;;;;67.30;26.30;;;;;;;;;;107049;1274;22601;-80
2023/02/15 01:23:48;;;;;;;61.40;23.90;;;;;;;;;;106999;1274;24218;-75
2023/02/15 01:26:15;;;;;;;73.20;27.00;;;;;;;;;;107131;1274;25350;-78
2023/02/15 01:28:52;;;;;;;62.60;25.40;;;;;;;;;;107199;1274;23923;-76
2023/02/15 01:32:00;;;;;;;69.30;26.30;;;;;;;;;;107078;1256;22489;-77
2023/02/15 01:35:33;;;;;;;79.60;27.00;;;;;;;;;;107110;1275;22662;-78
2023/02/15 01:38:26;;;;;;;75.70;27.70;;;;;;;;;;106563;1282;22674;-86
2023/02/15 01:41:26;;;;;;;73.50;26.60;;;;;;;;;;106524;1281;24232;-75
2023/02/15 01:44:22;;;;;;;73.90;27.60;;;;;;;;;;106707;1262;25463;-77
2023/02/15 01:47:21;;;;;;;;;;;;;;;;;;;;;
2023/02/15 01:50:32;;;;;;;66.40;26.20;;;;;;;;;;106707;1281;22563;-76
2023/02/15 01:53:18;;;;;;;;;;;;;;;;;;;;;
2023/02/15 01:55:48;;;;;;;59.20;22.20;;;;;;;;;;106547;1282;25453;-76
2023/02/15 01:58:47;;;;;;;64.80;22.60;;;;;;;;;;106588;1282;22536;-81
2023/02/15 02:01:18;;;;;;;58.90;21.20;;;;;;;;;;106434;1282;22679;-75
2023/02/15 02:03:51;;;;;;;68.20;23.30;;;;;;;;;;106443;1266;22557;-77
2023/02/15 02:06:33;;;;;;;;;;;;;;;;;;;;;
2023/02/15 02:09:14;;;;;;;;;;;;;;;;;;;;;
2023/02/15 02:12:16;;;;;;;73.80;27.30;;;;;;;;;;106645;1281;22536;-76
2023/02/15 02:15:10;;;;;;;73.60;26.70;;;;;;;;;;106831;1264;25288;-76
2023/02/15 02:18:25;;;;;;;64.60;25.90;;;;;;;;;;107096;1275;22996;-76
2023/02/15 02:21:14;;;;;;;67.40;25.30;;;;;;;;;;107112;1275;22522;-81
2023/02/15 02:27:52;;;;;;;72.60;25.40;;;;;;;;;;106631;1281;26490;-78
2023/02/15 02:30:28;;;;;;;64.90;25.30;;;;;;;;;;106688;1281;23137;-77
2023/02/15 02:36:18;;;;;;;83.00;29.50;;;;;;;;;;106544;1282;22663;-77
2023/02/15 02:39:46;;;;;;;78.10;27.90;;;;;;;;;;106432;1282;22560;-77
2023/02/15 02:48:54;;;;;;;;;;;;;;;;;;;;;
2023/02/15 02:51:41;;;;;;;84.80;30.90;;;;;;;;;;105715;1293;22554;-77
2023/02/15 02:54:14;;;;;;;83.00;31.10;;;;;;;;;;105742;1274;24239;-76
2023/02/15 02:56:47;;;;;;;83.10;32.80;;;;;;;;;;105701;1293;26503;-75
2023/02/15 02:59:18;;;;;;;76.70;30.70;;;;;;;;;;105721;1293;24252;-79
2023/02/15 03:02:03;;;;;;;75.10;28.80;;;;;;;;;;105880;1289;22511;-79
2023/02/15 03:04:45;;;;;;;;;;;;;;;;;;;;;
2023/02/15 03:07:53;;;;;;;71.60;28.10;;;;;;;;;;106017;1288;23420;-77
2023/02/15 03:10:23;;;;;;;77.20;30.10;;;;;;;;;;105988;1288;22587;-81
2023/02/15 03:13:21;;;;;;;70.70;28.10;;;;;;;;;;106140;1282;22554;-81
2023/02/15 03:16:30;;;;;;;67.20;27.30;;;;;;;;;;106467;1265;22540;-79
2023/02/15 03:19:38;;;;;;;73.20;26.80;;;;;;;;;;106442;1283;22555;-80
2023/02/15 03:22:28;;;;;;;77.40;27.60;;;;;;;;;;106388;1282;22966;-77
2023/02/15 03:25:19;;;;;;;83.00;29.60;;;;;;;;;;106862;1262;22531;-77
2023/02/15 03:27:51;;;;;;;81.00;31.10;;;;;;;;;;107039;1274;22506;-76
2023/02/15 03:30:45;;;;;;;85.10;29.50;;;;;;;;;;107157;1274;22993;-76
2023/02/15 03:33:12;;;;;;;88.90;31.40;;;;;;;;;;107141;1274;22530;-78
2023/02/15 03:36:03;;;;;;;108.10;35.60;;;;;;;;;;107066;1256;22529;-81
2023/02/15 03:38:45;;;;;;;124.90;37.00;;;;;;;;;;106868;1275;25291;-79
2023/02/15 03:41:15;;;;;;;125.10;37.30;;;;;;;;;;106929;1275;25278;-78
2023/02/15 03:43:51;;;;;;;115.50;33.70;;;;;;;;;;106878;1275;24363;-81
2023/02/15 03:46:58;;;;;;;103.60;31.90;;;;;;;;;;107032;1256;24256;-78
2023/02/15 03:49:45;;;;;;;107.30;32.30;;;;;;;;;;107168;1273;22530;-80
2023/02/15 03:52:15;;;;;;;117.70;32.70;;;;;;;;;;107155;1274;25291;-78
2023/02/15 03:54:45;;;;;;;123.60;34.10;;;;;;;;;;107079;1273;22555;-78
2023/02/15 04:03:41;;;;;;;144.50;37.20;;;;;;;;;;107149;1274;23870;-77
2023/02/15 04:06:08;;;;;;;161.90;41.20;;;;;;;;;;107142;1254;22526;-78
2023/02/15 04:11:23;;;;;;;142.90;38.90;;;;;;;;;;106856;1274;24323;-76
2023/02/15 04:14:06;;;;;;;;;;;;;;;;;;;;;
2023/02/15 04:16:41;;;;;;;108.40;32.70;;;;;;;;;;106933;1274;22539;-80
2023/02/15 04:25:17;;;;;;;64.10;23.10;;;;;;;;;;107183;1251;25397;-76
2023/02/15 04:28:24;;;;;;;73.20;25.30;;;;;;;;;;107066;1274;22524;-81
2023/02/15 04:30:54;;;;;;;71.50;26.20;;;;;;;;;;107150;1274;22539;-77
2023/02/15 04:33:48;;;;;;;;;;;;;;;;;;;;;
2023/02/15 04:36:21;;;;;;;69.70;23.20;;;;;;;;;;107050;1256;25284;-81
2023/02/15 04:38:48;;;;;;;94.90;30.30;;;;;;;;;;107113;1274;25258;-79
2023/02/15 04:41:38;;;;;;;88.50;28.70;;;;;;;;;;106883;1273;25445;-77
2023/02/15 04:44:26;;;;;;;88.10;31.80;;;;;;;;;;106938;1274;22540;-78
2023/02/15 04:47:12;;;;;;;89.40;30.20;;;;;;;;;;107061;1256;25325;-77
2023/02/15 04:49:39;;;;;;;88.80;33.10;;;;;;;;;;107073;1274;22489;-76
2023/02/15 04:52:16;;;;;;;84.10;30.80;;;;;;;;;;106930;1274;22530;-79
2023/02/15 04:55:26;;;;;;;78.60;28.80;;;;;;;;;;107087;1274;22533;-78
2023/02/15 04:57:56;;;;;;;88.60;28.90;;;;;;;;;;107057;1256;22481;-78
2023/02/15 05:00:46;;;;;;;86.90;31.00;;;;;;;;;;107098;1274;22529;-76
2023/02/15 05:03:13;;;;;;;85.80;32.30;;;;;;;;;;107140;1274;22538;-76
2023/02/15 05:06:03;;;;;;;88.40;31.30;;;;;;;;;;107086;1274;23179;-76
2023/02/15 05:08:53;;;;;;;98.70;32.20;;;;;;;;;;107070;1256;22639;-79
2023/02/15 05:11:48;;;;;;;97.40;30.60;;;;;;;;;;107153;1273;24029;-79
2023/02/15 05:14:39;;;;;;;102.60;29.90;;;;;;;;;;107167;1274;22549;-81
2023/02/15 05:17:29;;;;;;;103.10;33.40;;;;;;;;;;106944;1256;24226;-79
2023/02/15 05:20:00;;;;;;;110.80;33.00;;;;;;;;;;107063;1274;22540;-80
2023/02/15 05:22:32;;;;;;;152.10;45.80;;;;;;;;;;107156;1274;23868;-79
2023/02/15 05:28:22;;;;;;;163.50;51.00;;;;;;;;;;107150;1255;22606;-81
2023/02/15 05:31:06;;;;;;;118.30;39.80;;;;;;;;;;107049;1274;25285;-79
2023/02/15 05:33:40;;;;;;;113.40;35.60;;;;;;;;;;106923;1274;24359;-79
2023/02/15 05:36:29;;;;;;;90.90;31.80;;;;;;;;;;107113;1274;22540;-81
2023/02/15 05:39:23;;;;;;;88.00;31.00;;;;;;;;;;106844;1275;22527;-79
2023/02/15 05:42:19;;;;;;;87.50;31.70;;;;;;;;;;106946;1275;22525;-81
2023/02/15 05:45:30;;;;;;;99.10;35.50;;;;;;;;;;107124;1269;24686;-82
2023/02/15 05:51:06;;;;;;;126.90;46.10;;;;;;;;;;106826;1276;25277;-78
2023/02/15 05:54:14;;;;;;;120.40;45.50;;;;;;;;;;106793;1276;25351;-76
2023/02/15 05:56:47;;;;;;;97.20;37.40;;;;;;;;;;106906;1276;22618;-78
2023/02/15 05:59:27;;;;;;;81.60;32.80;;;;;;;;;;106857;1259;25338;-79
2023/02/15 06:02:12;;;;;;;78.00;31.60;;;;;;;;;;106901;1275;22549;-81
2023/02/15 06:05:02;;;;;;;68.20;27.50;;;;;;;;;;107017;1275;25284;-79
2023/02/15 06:07:50;;;;;;;78.40;30.10;;;;;;;;;;106875;1276;24260;-75
2023/02/15 06:11:06;;;;;;;67.30;27.30;;;;;;;;;;106829;1270;23003;-78
2023/02/15 06:13:49;;;;;;;69.40;26.00;;;;;;;;;;106971;1275;22508;-77
2023/02/15 06:16:19;;;;;;;71.50;26.90;;;;;;;;;;106669;1275;25275;-79
2023/02/15 06:18:51;;;;;;;66.80;26.80;;;;;;;;;;106827;1253;22533;-78
2023/02/15 06:22:20;;;;;;;64.70;25.80;;;;;;;;;;106865;1274;22561;-77
2023/02/15 06:25:43;;;;;;;73.30;26.80;;;;;;;;;;106991;1275;22528;-80
2023/02/15 06:28:19;;;;;;;77.00;29.30;;;;;;;;;;106877;1275;22528;-79
2023/02/15 06:31:51;;;;;;;92.80;35.80;;;;;;;;;;106864;1259;22536;-78
2023/02/15 06:34:33;;;;;;;101.80;37.80;;;;;;;;;;107003;1275;22542;-77
2023/02/15 06:37:23;;;;;;;93.80;35.80;;;;;;;;;;107018;1275;24256;-78
2023/02/15 06:40:32;;;;;;;89.30;34.30;;;;;;;;;;107191;1275;26492;-78
2023/02/15 06:43:34;;;;;;;84.20;33.30;;;;;;;;;;107143;1275;25311;-78
2023/02/15 06:46:21;;;;;;;89.30;31.70;;;;;;;;;;107098;1275;22912;-80
2023/02/15 06:49:20;;;;;;;83.50;33.10;;;;;;;;;;106880;1275;22534;-79
2023/02/15 06:52:29;;;;;;;82.00;33.20;;;;;;;;;;107074;1256;22613;-77
2023/02/15 06:54:53;;;;;;;88.50;33.40;;;;;;;;;;107095;1275;22774;-77
2023/02/15 06:57:22;;;;;;;90.90;33.50;;;;;;;;;;106899;1275;22529;-81
2023/02/15 06:59:49;;;;;;;103.10;37.40;;;;;;;;;;107099;1275;24317;-77
2023/02/15 07:02:16;;;;;;;93.00;35.40;;;;;;;;;;106865;1275;25415;-78
2023/02/15 07:05:12;;;;;;;;;;;;;;;;;;;;;
2023/02/15 07:07:48;;;;;;;83.90;32.50;;;;;;;;;;107129;1275;25325;-79
2023/02/15 07:10:25;;;;;;;80.60;33.10;;;;;;;;;;107124;1275;22504;-79
2023/02/15 07:13:05;;;;;;;;;;;;;;;;;;;;;
2023/02/15 07:15:43;;;;;;;82.30;32.80;;;;;;;;;;107079;1275;24673;-76
2023/02/15 07:18:13;;;;;;;77.30;33.30;;;;;;;;;;106900;1275;22547;-80
2023/02/15 07:20:43;;;;;;;78.10;31.70;;;;;;;;;;106869;1275;22530;-81
2023/02/15 07:23:10;;;;;;;75.70;29.80;;;;;;;;;;106777;1259;22549;-75
2023/02/15 07:25:37;;;;;;;95.80;38.30;;;;;;;;;;106809;1251;24192;-76
2023/02/15 07:28:06;;;;;;;98.40;38.50;;;;;;;;;;106817;1275;22689;-76
2023/02/15 07:30:36;;;;;;;78.70;33.60;;;;;;;;;;107067;1272;22657;-80
2023/02/15 07:33:28;;;;;;;80.20;32.80;;;;;;;;;;107081;1264;22850;-80
2023/02/15 07:36:00;;;;;;;71.40;29.20;;;;;;;;;;107125;1275;22495;-78
2023/02/15 07:38:55;;;;;;;67.00;29.10;;;;;;;;;;106956;1275;25479;-77
2023/02/15 07:41:23;;;;;;;67.40;27.00;;;;;;;;;;107030;1275;24199;-76
2023/02/15 07:44:10;;;;;;;63.00;26.90;;;;;;;;;;106858;1257;22553;-75
2023/02/15 07:46:57;;;;;;;64.10;25.90;;;;;;;;;;107113;1275;25431;-82
2023/02/15 07:49:58;;;;;;;58.60;25.60;;;;;;;;;;107117;1275;22674;-79
2023/02/15 07:53:08;;;;;;;62.60;25.30;;;;;;;;;;107113;1275;22536;-80
2023/02/15 07:55:42;;;;;;;61.40;25.10;;;;;;;;;;107106;1272;25120;-82
2023/02/15 08:01:23;;;;;;;62.20;25.50;;;;;;;;;;107095;1275;25334;-77
2023/02/15 08:04:10;;;;;;;60.40;25.30;;;;;;;;;;107124;1256;23872;-80
2023/02/15 08:06:44;;;;;;;60.10;24.60;;;;;;;;;;106886;1274;22554;-78
2023/02/15 08:09:33;;;;;;;60.80;25.60;;;;;;;;;;106772;1274;25275;-81
2023/02/15 08:12:05;;;;;;;51.60;23.30;;;;;;;;;;106812;1275;22526;-76
2023/02/15 08:14:45;;;;;;;52.80;22.50;;;;;;;;;;106843;1257;23083;-80
2023/02/15 08:17:15;;;;;;;55.10;22.80;;;;;;;;;;110526;1274;22148;-75
2023/02/15 08:19:46;;;;;;;50.90;22.30;;;;;;;;;;110430;1275;22840;-75
2023/02/15 08:22:13;;;;;;;51.90;21.70;;;;;;;;;;110548;1275;22393;-75
2023/02/15 08:24:41;;;;;;;49.30;21.30;;;;;;;;;;110724;1256;22216;-75
2023/02/15 08:27:09;;;;;;;48.00;21.00;;;;;;;;;;110585;1275;22342;-75
2023/02/15 08:29:37;;;;;;;62.00;25.40;;;;;;;;;;110539;1275;22121;-75
2023/02/15 08:32:06;;;;;;;56.00;22.80;;;;;;;;;;110348;1276;22098;-75
2023/02/15 08:34:34;;;;;;;42.50;19.80;;;;;;;;;;110414;1256;22167;-75
2023/02/15 08:37:01;;;;;;;49.70;20.70;;;;;;;;;;110323;1276;22272;-75
2023/02/15 08:39:29;;;;;;;43.70;20.70;;;;;;;;;;110618;1276;22192;-75
2023/02/15 08:41:56;;;;;;;44.20;21.00;;;;;;;;;;110633;1276;22157;-76
2023/02/15 08:44:23;;;;;;;46.70;21.10;;;;;;;;;;110781;1256;22141;-75
2023/02/15 08:46:50;;;;;;;43.60;20.60;;;;;;;;;;110466;1276;22131;-76
2023/02/15 08:49:19;;;;;;;42.80;19.70;;;;;;;;;;110344;1276;22154;-76
2023/02/15 08:51:46;;;;;;;40.50;18.10;;;;;;;;;;110482;1276;21969;-77
2023/02/15 08:54:14;;;;;;;38.30;18.50;;;;;;;;;;110703;1255;22874;-76
2023/02/15 08:56:42;;;;;;;44.30;19.70;;;;;;;;;;110457;1276;22945;-76
2023/02/15 08:59:13;;;;;;;40.70;19.00;;;;;;;;;;110469;1276;22996;-76
2023/02/15 09:01:40;;;;;;;45.20;19.80;;;;;;;;;;110326;1276;22096;-77
2023/02/15 09:04:12;;;;;;;43.90;20.90;;;;;;;;;;110529;1255;22246;-76
2023/02/15 09:06:39;;;;;;;40.70;18.40;;;;;;;;;;110577;1276;22845;-76
2023/02/15 09:09:18;;;;;;;37.00;17.80;;;;;;;;;;110457;1276;22843;-76
2023/02/15 09:11:46;;;;;;;37.20;17.80;;;;;;;;;;110331;1276;22346;-84
2023/02/15 09:14:14;;;;;;;37.30;17.10;;;;;;;;;;110652;1256;21989;-76
2023/02/15 09:16:44;;;;;;;39.80;18.80;;;;;;;;;;110599;1276;22116;-77
2023/02/15 09:19:11;;;;;;;35.60;17.60;;;;;;;;;;110490;1276;22177;-77
2023/02/15 09:21:38;;;;;;;36.00;17.90;;;;;;;;;;110463;1276;22285;-76
2023/02/15 09:24:08;;;;;;;34.20;17.80;;;;;;;;;;110461;1253;22142;-77
2023/02/15 09:26:36;;;;;;;37.00;17.50;;;;;;;;;;110447;1276;22141;-77
2023/02/15 09:29:03;;;;;;;32.70;17.80;;;;;;;;;;110469;1276;22401;-76
2023/02/15 09:31:36;;;;;;;33.50;17.50;;;;;;;;;;110565;1276;22113;-77
2023/02/15 09:34:03;;;;;;;34.70;17.80;;;;;;;;;;110321;1253;22208;-77
2023/02/15 09:36:30;;;;;;;35.50;17.40;;;;;;;;;;110224;1276;22134;-77
2023/02/15 09:39:00;;;;;;;29.80;15.10;;;;;;;;;;110440;1277;22120;-77
2023/02/15 09:41:58;;;;;;;31.70;15.70;;;;;;;;;;110262;1277;22344;-77
2023/02/15 09:44:23;;;;;;;32.30;15.90;;;;;;;;;;110470;1254;22424;-77
2023/02/15 09:47:08;;;;;;;30.00;15.40;;;;;;;;;;110469;1277;22879;-76
2023/02/15 09:49:38;;;;;;;34.10;17.10;;;;;;;;;;110269;1277;22126;-77
2023/02/15 09:52:15;;;;;;;33.80;16.70;;;;;;;;;;110461;1277;22118;-77
2023/02/15 09:54:56;;;;;;;32.30;16.20;;;;;;;;;;110319;1254;23010;-76
2023/02/15 09:57:26;;;;;;;33.40;16.90;;;;;;;;;;110267;1277;22159;-77
2023/02/15 10:00:05;;;;;;;32.10;16.30;;;;;;;;;;110431;1277;22878;-76
2023/02/15 10:02:39;;;;;;;35.80;16.70;;;;;;;;;;110450;1277;22135;-76
2023/02/15 10:05:50;;;;;;;31.70;16.50;;;;;;;;;;110213;1260;22136;-77
2023/02/15 10:08:16;;;;;;;30.90;16.10;;;;;;;;;;110473;1277;22014;-77
2023/02/15 10:10:56;;;;;;;33.70;16.70;;;;;;;;;;110454;1277;22095;-77
2023/02/15 10:13:49;;;;;;;30.70;16.60;;;;;;;;;;110288;1277;22587;-76
2023/02/15 10:16:25;;;;;;;31.20;17.00;;;;;;;;;;109782;1267;22189;-77
2023/02/15 10:18:55;;;;;;;36.50;17.90;;;;;;;;;;109780;1286;22175;-77
2023/02/15 10:21:33;;;;;;;33.10;17.40;;;;;;;;;;109761;1286;22165;-77
2023/02/15 10:24:15;;;;;;;33.20;17.30;;;;;;;;;;109733;1286;22162;-77
2023/02/15 10:26:56;;;;;;;31.90;17.20;;;;;;;;;;109922;1267;22184;-77
2023/02/15 10:29:55;;;;;;;32.00;17.10;;;;;;;;;;109792;1286;22255;-77
2023/02/15 10:32:27;;;;;;;36.40;18.40;;;;;;;;;;109777;1286;22956;-77
2023/02/15 10:34:54;;;;;;;35.40;19.80;;;;;;;;;;109776;1287;22948;-77
2023/02/15 10:37:28;;;;;;;33.90;18.90;;;;;;;;;;109916;1269;22292;-77
2023/02/15 10:40:13;;;;;;;33.70;18.00;;;;;;;;;;109781;1286;22250;-76
2023/02/15 10:42:53;;;;;;;33.70;17.20;;;;;;;;;;109890;1286;22168;-77
2023/02/15 10:45:27;;;;;;;32.40;17.30;;;;;;;;;;109758;1264;22457;-77
2023/02/15 10:48:28;;;;;;;34.20;17.90;;;;;;;;;;109780;1286;22193;-77
2023/02/15 10:51:02;;;;;;;33.60;17.60;;;;;;;;;;109788;1286;22218;-76
2023/02/15 10:53:29;;;;;;;34.80;18.00;;;;;;;;;;108475;1277;22101;-77
2023/02/15 10:56:16;;;;;;;31.20;17.30;;;;;;;;;;110522;1258;22172;-76
2023/02/15 10:59:06;;;;;;;30.00;17.30;;;;;;;;;;110291;1277;22098;-77
2023/02/15 11:01:38;;;;;;;31.00;16.90;;;;;;;;;;110167;1277;22799;-76
2023/02/15 11:04:17;;;;;;;32.00;17.20;;;;;;;;;;110462;1277;22099;-77
2023/02/15 11:06:51;;;;;;;28.90;15.90;;;;;;;;;;110415;1259;22206;-77
2023/02/15 11:09:20;;;;;;;32.00;16.90;;;;;;;;;;110319;1277;22114;-77
2023/02/15 11:11:51;;;;;;;32.90;16.90;;;;;;;;;;110303;1277;22113;-77
2023/02/15 11:14:23;;;;;;;35.70;18.20;;;;;;;;;;110297;1277;22123;-77
2023/02/15 11:16:52;;;;;;;35.20;17.80;;;;;;;;;;110330;1259;22130;-76
2023/02/15 11:19:28;;;;;;;31.90;18.00;;;;;;;;;;110306;1277;22124;-79
2023/02/15 11:21:58;;;;;;;31.90;17.90;;;;;;;;;;110460;1277;22817;-77
2023/02/15 11:24:27;;;;;;;31.70;18.30;;;;;;;;;;110275;1277;22857;-77
2023/02/15 11:27:23;;;;;;;33.20;17.90;;;;;;;;;;110323;1260;22140;-77
2023/02/15 11:29:50;;;;;;;29.00;16.90;;;;;;;;;;110253;1277;22173;-77
2023/02/15 11:32:19;;;;;;;33.10;19.20;;;;;;;;;;110430;1277;22127;-77
2023/02/15 11:35:01;;;;;;;29.40;16.70;;;;;;;;;;110176;1278;22106;-77
2023/02/15 11:37:35;;;;;;;33.70;18.90;;;;;;;;;;110499;1259;22191;-77
2023/02/15 11:40:03;;;;;;;31.90;18.60;;;;;;;;;;110277;1278;22073;-78
2023/02/15 11:42:31;;;;;;;30.90;18.00;;;;;;;;;;110438;1278;22127;-77
2023/02/15 11:45:00;;;;;;;32.10;18.70;;;;;;;;;;110440;1278;22123;-77
2023/02/15 11:47:27;;;;;;;36.60;19.50;;;;;;;;;;110536;1259;22133;-77
2023/02/15 11:49:54;;;;;;;34.20;19.70;;;;;;;;;;110185;1277;21994;-77
2023/02/15 11:52:21;;;;;;;32.60;18.60;;;;;;;;;;110311;1277;22143;-77
2023/02/15 11:54:52;;;;;;;29.00;17.30;;;;;;;;;;110513;1277;22739;-77
2023/02/15 11:57:33;;;;;;;28.40;17.60;;;;;;;;;;110523;1259;22195;-77
2023/02/15 12:00:04;;;;;;;30.60;18.40;;;;;;;;;;110283;1278;22139;-77
2023/02/15 12:02:36;;;;;;;33.60;18.40;;;;;;;;;;110454;1278;22120;-77
2023/02/15 12:05:06;;;;;;;33.20;18.30;;;;;;;;;;110456;1278;22144;-77
2023/02/15 12:07:33;;;;;;;28.80;17.90;;;;;;;;;;110618;1259;22234;-77
2023/02/15 12:10:22;;;;;;;30.10;18.10;;;;;;;;;;110501;1277;22388;-77
2023/02/15 12:13:08;;;;;;;34.40;19.90;;;;;;;;;;110455;1277;22938;-77
2023/02/15 12:15:35;;;;;;;34.90;19.50;;;;;;;;;;110199;1277;22472;-77
2023/02/15 12:18:02;;;;;;;33.80;19.70;;;;;;;;;;110303;1262;22150;-77
2023/02/15 12:20:31;;;;;;;32.70;19.60;;;;;;;;;;110440;1278;21944;-77
2023/02/15 12:23:02;;;;;;;35.10;19.60;;;;;;;;;;110430;1278;22095;-77
2023/02/15 12:25:32;;;;;;;34.50;20.10;;;;;;;;;;110323;1278;22131;-77
2023/02/15 12:27:59;;;;;;;34.10;19.90;;;;;;;;;;110560;1259;22132;-77
2023/02/15 12:30:35;;;;;;;33.80;20.00;;;;;;;;;;110298;1277;22146;-76
2023/02/15 12:33:04;;;;;;;36.10;20.40;;;;;;;;;;110267;1278;22142;-77
2023/02/15 12:35:33;;;;;;;37.20;21.10;;;;;;;;;;110274;1278;22144;-77
2023/02/15 12:38:03;;;;;;;35.70;20.50;;;;;;;;;;110220;1262;22116;-77
2023/02/15 12:40:30;;;;;;;40.30;21.20;;;;;;;;;;110088;1280;22130;-77
2023/02/15 12:42:58;;;;;;;36.90;20.30;;;;;;;;;;110038;1280;22141;-77
2023/02/15 12:45:27;;;;;;;31.40;19.20;;;;;;;;;;110098;1280;22196;-77
2023/02/15 12:48:09;;;;;;;32.80;19.90;;;;;;;;;;110103;1256;22942;-77
2023/02/15 12:50:36;;;;;;;35.40;20.80;;;;;;;;;;110251;1279;22846;-77
2023/02/15 12:53:08;;;;;;;37.30;21.90;;;;;;;;;;110159;1278;22105;-77
2023/02/15 12:55:37;;;;;;;33.90;20.60;;;;;;;;;;110164;1278;22880;-77
2023/02/15 12:58:08;;;;;;;36.50;21.80;;;;;;;;;;110160;1256;22138;-77
2023/02/15 13:00:35;;;;;;;35.90;21.40;;;;;;;;;;110092;1279;22902;-77
2023/02/15 13:03:02;;;;;;;33.80;19.50;;;;;;;;;;110112;1279;22032;-76
2023/02/15 13:05:40;;;;;;;32.20;19.90;;;;;;;;;;110252;1276;22152;-77
2023/02/15 13:08:07;;;;;;;35.80;20.80;;;;;;;;;;110150;1256;22380;-77
2023/02/15 13:10:40;;;;;;;38.30;22.80;;;;;;;;;;110326;1278;22101;-77
2023/02/15 13:13:11;;;;;;;34.30;21.30;;;;;;;;;;110259;1278;22097;-77
2023/02/15 13:15:40;;;;;;;35.10;20.50;;;;;;;;;;110167;1278;22173;-77
2023/02/15 13:18:13;;;;;;;37.70;21.40;;;;;;;;;;110324;1278;22099;-77
2023/02/15 13:20:40;;;;;;;33.40;21.10;;;;;;;;;;110254;1260;22256;-77
2023/02/15 13:23:13;;;;;;;42.30;22.80;;;;;;;;;;110088;1279;22294;-77
2023/02/15 13:25:47;;;;;;;34.70;19.50;;;;;;;;;;110099;1279;22211;-76
2023/02/15 13:28:17;;;;;;;33.10;19.50;;;;;;;;;;110114;1279;22148;-77
2023/02/15 13:30:46;;;;;;;32.20;19.20;;;;;;;;;;110552;1272;22057;-77
2023/02/15 13:33:14;;;;;;;31.70;19.20;;;;;;;;;;110104;1279;22668;-77
2023/02/15 13:35:49;;;;;;;36.60;20.20;;;;;;;;;;110217;1280;22208;-77
2023/02/15 13:38:31;;;;;;;42.30;24.50;;;;;;;;;;110093;1280;22912;-77
2023/02/15 13:41:03;;;;;;;36.50;20.30;;;;;;;;;;110588;1259;22791;-77
2023/02/15 13:43:44;;;;;;;37.40;21.90;;;;;;;;;;110237;1279;22100;-77
2023/02/15 13:46:17;;;;;;;38.80;21.50;;;;;;;;;;110241;1279;22105;-77
2023/02/15 13:49:04;;;;;;;30.90;19.60;;;;;;;;;;110286;1272;22088;-77
2023/02/15 13:51:52;;;;;;;34.00;21.00;;;;;;;;;;110437;1262;22143;-77
2023/02/15 13:54:27;;;;;;;35.90;21.30;;;;;;;;;;110242;1279;22111;-77
2023/02/15 13:57:02;;;;;;;31.40;19.10;;;;;;;;;;110271;1279;22228;-77
2023/02/15 13:59:45;;;;;;;37.70;22.00;;;;;;;;;;110083;1279;22385;-76
2023/02/15 14:02:18;;;;;;;43.40;24.70;;;;;;;;;;110126;1262;22143;-77
2023/02/15 14:05:04;;;;;;;42.30;23.40;;;;;;;;;;110160;1280;22151;-77
2023/02/15 14:08:02;;;;;;;38.50;21.40;;;;;;;;;;110071;1280;22428;-77
2023/02/15 14:10:30;;;;;;;34.00;19.30;;;;;;;;;;110106;1262;22136;-77
2023/02/15 14:12:57;;;;;;;35.80;21.00;;;;;;;;;;110222;1279;22117;-77
2023/02/15 14:15:24;;;;;;;34.80;20.70;;;;;;;;;;110278;1279;22815;-77
2023/02/15 14:18:17;;;;;;;39.50;22.10;;;;;;;;;;110189;1278;22202;-77
2023/02/15 14:20:56;;;;;;;38.70;22.40;;;;;;;;;;110153;1261;22165;-77
2023/02/15 14:23:36;;;;;;;39.80;23.20;;;;;;;;;;110132;1280;22005;-77
2023/02/15 14:26:12;;;;;;;40.70;23.20;;;;;;;;;;110233;1280;22145;-77
2023/02/15 14:28:48;;;;;;;43.10;23.30;;;;;;;;;;110080;1280;22113;-77
2023/02/15 14:31:20;;;;;;;42.10;22.00;;;;;;;;;;110244;1259;22139;-77
2023/02/15 14:33:58;;;;;;;40.10;21.80;;;;;;;;;;110108;1272;22726;-77
2023/02/15 14:36:33;;;;;;;47.50;24.30;;;;;;;;;;110091;1279;22360;-76
2023/02/15 14:42:22;;;;;;;47.50;23.30;;;;;;;;;;110227;1263;22157;-77
2023/02/15 14:45:27;;;;;;;53.50;26.30;;;;;;;;;;109996;1281;22174;-76
2023/02/15 14:47:58;;;;;;;59.00;27.20;;;;;;;;;;110091;1281;22178;-76
2023/02/15 14:50:45;;;;;;;61.00;29.90;;;;;;;;;;110081;1278;22008;-77
2023/02/15 14:53:35;;;;;;;46.80;25.40;;;;;;;;;;110537;1260;22916;-77
2023/02/15 14:56:30;;;;;;;42.70;23.00;;;;;;;;;;110103;1279;22384;-77
2023/02/15 14:59:20;;;;;;;43.70;22.50;;;;;;;;;;110110;1279;22123;-77
2023/02/15 15:02:12;;;;;;;42.80;23.20;;;;;;;;;;110102;1263;22161;-78
2023/02/15 15:04:59;;;;;;;49.90;25.20;;;;;;;;;;110043;1281;22946;-77
2023/02/15 15:07:43;;;;;;;51.00;24.90;;;;;;;;;;110067;1276;22134;-76
2023/02/15 15:10:38;;;;;;;54.40;26.20;;;;;;;;;;110019;1281;22281;-77
2023/02/15 15:13:38;;;;;;;55.30;26.40;;;;;;;;;;110397;1263;22162;-77
2023/02/15 15:16:25;;;;;;;55.10;27.00;;;;;;;;;;109893;1286;22184;-76
2023/02/15 15:19:00;;;;;;;50.80;25.60;;;;;;;;;;109889;1286;22102;-77
2023/02/15 15:21:46;;;;;;;45.30;22.80;;;;;;;;;;109785;1286;22171;-77
2023/02/15 15:24:32;;;;;;;50.10;24.10;;;;;;;;;;109889;1270;22165;-76
2023/02/15 15:27:18;;;;;;;49.60;24.60;;;;;;;;;;109891;1285;22194;-76
2023/02/15 15:29:46;;;;;;;52.30;24.00;;;;;;;;;;109875;1285;22142;-76
2023/02/15 15:37:28;;;;;;;50.50;23.60;;;;;;;;;;103895;1295;545000;-76
2023/02/15 15:40:13;;;;;;;47.20;23.30;;;;;;;;;;106332;1288;23682;-75
2023/02/15 15:42:59;;;;;;;47.20;23.20;;;;;;;;;;106306;1288;22549;-77
2023/02/15 15:46:31;;;;;;;46.80;23.10;;;;;;;;;;106295;1288;22549;-82
2023/02/15 15:49:10;;;;;;;49.80;23.10;;;;;;;;;;106376;1286;25459;-75
2023/02/15 15:51:39;;;;;;;61.20;25.90;;;;;;;;;;102487;1276;5421270;-81
2023/02/15 15:54:12;;;;;;;60.90;26.90;;;;;;;;;;106455;1283;22563;-80
2023/02/15 15:56:57;;;;;;;55.40;24.50;;;;;;;;;;106529;1275;25359;-75
2023/02/15 15:59:44;;;;;;;49.50;23.10;;;;;;;;;;106443;1266;25328;-75
2023/02/15 16:02:19;;;;;;;54.50;24.40;;;;;;;;;;106592;1279;25522;-76
2023/02/15 16:04:52;;;;;;;53.80;24.80;;;;;;;;;;106694;1281;22540;-80
2023/02/15 16:07:21;;;;;;;50.50;22.80;;;;;;;;;;106520;1261;25356;-80
2023/02/15 16:13:22;;;;;;;;;;;;;;;;;;;;;
2023/02/15 16:16:08;;;;;;;50.40;22.90;;;;;;;;;;106458;1281;22543;-78
2023/02/15 16:19:16;;;;;;;46.90;20.80;;;;;;;;;;106572;1281;25456;-79
2023/02/15 16:22:02;;;;;;;54.30;24.90;;;;;;;;;;106747;1278;22530;-75
2023/02/15 16:24:51;;;;;;;62.30;27.70;;;;;;;;;;106591;1281;24248;-80
2023/02/15 16:28:19;;;;;;;;;;;;;;;;;;;;;